Hope of the Grand Valley 5k/10k Run/Walk

Fruita, CO

Race Results

5K

Sunday, Oct 20, 2019

Results are: Official

Participants 115
Finishers 96
Pace 13:44/mile
Average Time 00:42:36
 
 
Place Name Sex Sex Place Age Age Place Gun Time Chip Time Pace Last Seen At Start Time
1 Max Robinson (# 527) M 1 26 1st Overall 00:16:56 00:16:56 5:27/mile Finish 10:10 AM
2 Andrew Sands (# 618) M 2 13 2nd Overall 00:19:53 00:19:53 6:24/mile Finish 10:10 AM
3 Tyce Lefebre (# 591) M 3 13 1 / 4 00:20:53 00:20:53 6:44/mile Finish 10:10 AM
4 Oliver Berg (# 567) M 4 25 1 / 4 00:21:13 00:21:13 6:50/mile Finish 10:10 AM
5 John Ferguson (# 531) M 5 63 1 / 2 00:22:06 00:22:06 7:07/mile Finish 10:10 AM
6 Roger Santistevan (# 563) M 6 48 1 / 6 00:22:20 00:22:20 7:11/mile Finish 10:10 AM
7 Casey Wren (# 632) M 7 45 2 / 6 00:23:01 00:23:01 7:25/mile Finish 10:10 AM
8 Rachel Cambray (# 569) F 1 41 1st Overall 00:23:23 00:23:23 7:32/mile Finish 10:10 AM
9 Zane Rudnik (# 535) M 8 55 1 / 6 00:23:28 00:23:28 7:34/mile Finish 10:10 AM
10 Darby Spence (# 622) F 2 24 2nd Overall 00:23:34 00:23:34 7:36/mile Finish 10:10 AM
11 Maxwell White (# 628) M 9 13 2 / 4 00:23:51 00:23:51 7:41/mile Finish 10:10 AM
12 Grace Santistevan (# 562) F 3 15 1 / 1 00:24:19 00:24:19 7:50/mile Finish 10:10 AM
13 Justin Ridpath (# 530) M 10 38 1 / 4 00:24:53 00:24:53 8:01/mile Finish 10:10 AM
14 Matt Scoggins (# 619) M 11 50 2 / 6 00:25:24 00:25:24 8:11/mile Finish 10:10 AM
15 Joshua Pietak (# 611) M 12 24 2 / 4 00:26:02 00:26:02 8:23/mile Finish 10:10 AM
16 Michael White (# 629) M 13 45 3 / 6 00:26:14 00:26:14 8:27/mile Finish 10:10 AM
17 Dale Conley (# 573) M 14 57 3 / 6 00:27:00 00:27:00 8:42/mile Finish 10:10 AM
18 Gwen Roper (# 636) F 4 7 1 / 4 00:27:07 00:27:07 8:44/mile Finish 10:10 AM
19 Wade Houck (# 553) M 15 47 4 / 6 00:28:39 00:28:39 9:14/mile Finish 10:10 AM
20 Heather Skufca (# 635) F 5 21 1 / 12 00:29:34 00:29:34 9:32/mile Finish 10:10 AM
21 Michelle Moore (# 523) F 6 53 1 / 17 00:29:49 00:29:49 9:36/mile Finish 10:10 AM
22 Amelie Hooper (# 582) F 7 37 1 / 13 00:30:47 00:30:47 9:55/mile Finish 10:10 AM
23 Kayla Blackmer (# 546) F 8 28 2 / 12 00:30:48 00:30:48 9:55/mile Finish 10:10 AM
24 Debbie Hill (# 581) F 9 52 2 / 17 00:30:53 00:30:53 9:57/mile Finish 10:10 AM
25 Daniel Hooper hr (# 583) M 16 38 2 / 4 00:30:55 00:30:55 9:58/mile Finish 10:10 AM
    Page:     Next >   Last >>